createdAt,value
2022-12-20T06:26:10.677Z,101765.22
2022-12-20T06:29:17.610Z,101767.19
2022-12-20T06:32:20.937Z,101771.28
2022-12-20T06:35:24.724Z,101770.53
2022-12-20T06:38:29.279Z,101761.75
2022-12-20T06:41:32.285Z,101769.72
2022-12-20T06:44:35.163Z,101770.00
2022-12-20T06:47:39.234Z,101785.38
2022-12-20T06:50:42.110Z,101788.63
2022-12-20T06:53:45.330Z,101794.38
2022-12-20T06:56:48.211Z,101787.66
2022-12-20T06:59:52.218Z,101776.94
2022-12-20T07:02:55.087Z,101768.87
2022-12-20T07:05:58.426Z,101758.91
2022-12-20T07:09:01.112Z,101764.72
2022-12-20T07:12:05.383Z,101761.28
2022-12-20T07:15:08.770Z,101761.28
2022-12-20T07:18:11.836Z,101753.03
2022-12-20T07:21:17.306Z,101759.13
2022-12-20T07:24:20.687Z,101746.78
2022-12-20T07:27:23.490Z,101753.62
2022-12-20T07:30:26.898Z,101757.53
2022-12-20T07:33:30.460Z,101771.56
2022-12-20T07:36:33.600Z,101759.66
2022-12-20T07:39:36.378Z,101773.09
2022-12-20T07:42:46.172Z,101780.78
2022-12-20T07:45:57.572Z,101769.72
2022-12-20T07:49:00.657Z,101758.50
2022-12-20T07:52:05.125Z,101745.72
2022-12-20T07:55:13.995Z,101738.81
2022-12-20T07:58:18.899Z,101731.03
2022-12-20T08:01:22.215Z,101725.63
2022-12-20T08:04:28.255Z,101727.94
2022-12-20T08:07:31.950Z,101718.91
2022-12-20T08:10:36.997Z,101712.53
2022-12-20T08:13:45.993Z,101733.12
2022-12-20T08:16:49.695Z,101723.16
2022-12-20T08:19:52.455Z,101721.84
2022-12-20T08:22:55.428Z,101718.72
2022-12-20T08:26:01.394Z,101727.25
2022-12-20T08:29:04.553Z,101719.84
2022-12-20T08:32:07.606Z,101720.44
2022-12-20T08:35:10.898Z,101712.78
2022-12-20T08:38:13.795Z,101710.16
2022-12-20T08:41:18.295Z,101715.22
2022-12-20T09:54:05.505Z,101659.47
2022-12-20T09:58:24.740Z,101645.69
2022-12-20T10:01:38.705Z,101656.87
2022-12-20T10:04:43.520Z,101648.19
2022-12-20T10:08:09.522Z,101649.19
2022-12-20T10:11:50.140Z,101662.47
2022-12-20T10:15:02.839Z,101650.00
2022-12-20T10:18:50.580Z,101653.00
2022-12-20T10:22:27.467Z,101650.53
2022-12-20T10:25:52.194Z,101631.31
2022-12-20T10:28:55.213Z,101629.72
2022-12-20T10:32:01.733Z,101630.41
2022-12-20T10:35:10.883Z,101620.63
2022-12-20T10:42:38.494Z,101593.63
2022-12-20T10:46:09.623Z,101589.44
2022-12-20T10:49:21.733Z,101591.47
2022-12-20T10:52:25.217Z,101582.50
2022-12-20T10:55:38.394Z,101592.31
2022-12-20T10:58:42.363Z,101580.78
2022-12-20T11:01:48.168Z,101564.97
2022-12-20T11:05:14.735Z,101567.16
2022-12-20T11:08:39.240Z,101547.59
2022-12-20T11:23:24.496Z,101531.34
2022-12-20T11:27:15.409Z,101528.19
2022-12-20T11:30:44.931Z,101529.56
2022-12-20T11:34:18.865Z,101524.91
2022-12-20T11:37:25.427Z,101527.00
2022-12-20T11:40:35.898Z,101527.38
2022-12-20T11:44:23.272Z,101516.97
2022-12-20T11:55:34.702Z,101505.44
2022-12-20T11:58:53.111Z,101497.44
2022-12-20T12:02:00.030Z,101506.53
2022-12-20T12:05:07.738Z,101506.75
2022-12-20T12:08:19.998Z,101508.97
2022-12-20T12:12:05.761Z,101505.69
2022-12-20T12:15:35.254Z,101516.19
2022-12-20T12:18:42.140Z,101500.28
2022-12-20T12:21:56.422Z,101496.81
2022-12-20T12:25:21.846Z,101491.78
2022-12-20T12:29:09.668Z,101494.34
2022-12-20T12:32:57.146Z,101497.44
2022-12-20T12:36:49.587Z,101491.66
2022-12-20T12:41:01.279Z,101482.34
2022-12-20T12:45:26.750Z,101463.94
2022-12-20T12:49:13.772Z,101464.09
2022-12-20T12:53:22.972Z,101466.72
2022-12-20T12:57:13.023Z,101454.31
2022-12-20T13:00:53.014Z,101459.50
2022-12-20T13:03:59.243Z,101456.75
2022-12-20T13:07:43.867Z,101457.06
2022-12-20T13:11:04.620Z,101441.25
2022-12-20T13:14:26.061Z,101442.63
2022-12-20T13:17:29.054Z,101438.38
2022-12-20T13:20:34.751Z,101445.22
2022-12-20T13:23:44.921Z,101435.34
2022-12-20T13:26:53.717Z,101449.84
2022-12-20T13:33:49.658Z,101450.22
2022-12-20T13:37:00.935Z,101450.25
2022-12-20T13:40:06.298Z,101453.94
2022-12-20T13:43:23.553Z,101451.00
2022-12-20T13:46:58.809Z,101443.50
2022-12-20T13:50:52.421Z,101426.78
2022-12-20T13:53:59.771Z,101426.34
2022-12-20T13:57:09.920Z,101429.31
2022-12-20T14:00:19.108Z,101420.59
2022-12-20T14:03:26.678Z,101411.66
2022-12-20T14:06:29.499Z,101409.66
2022-12-20T14:09:35.836Z,101402.81
2022-12-20T14:12:45.277Z,101394.88
2022-12-20T14:15:48.850Z,101393.66
2022-12-20T14:19:03.536Z,101386.66
2022-12-20T14:22:08.652Z,101388.16
2022-12-20T14:25:16.660Z,101381.03
2022-12-20T14:28:27.600Z,101375.34
2022-12-20T14:31:33.575Z,101369.69
2022-12-20T14:34:41.760Z,101355.53
2022-12-20T14:37:54.034Z,101365.34
2022-12-20T14:40:57.577Z,101352.22
2022-12-20T14:44:07.140Z,101350.16
2022-12-20T14:47:13.282Z,101353.22
2022-12-20T15:39:57.692Z,101350.38
2022-12-20T15:43:00.908Z,101354.47
2022-12-20T15:46:03.889Z,101355.91
2022-12-20T15:49:06.920Z,101350.50
2022-12-20T15:52:18.701Z,101354.56
2022-12-20T15:55:22.122Z,101349.06
2022-12-20T15:58:26.380Z,101344.31
2022-12-20T16:01:40.313Z,101349.47
2022-12-20T16:04:44.704Z,101347.41
2022-12-20T16:07:47.628Z,101347.31
2022-12-20T16:10:52.340Z,101351.03
2022-12-20T16:13:56.137Z,101338.41
2022-12-20T16:16:59.323Z,101345.06
2022-12-20T16:20:02.324Z,101337.16
2022-12-20T16:23:07.658Z,101334.87
2022-12-20T16:26:17.764Z,101335.00
2022-12-20T16:29:41.553Z,101333.22
2022-12-20T16:33:04.883Z,101332.19
2022-12-20T16:36:11.900Z,101334.63
2022-12-20T16:39:14.775Z,101333.72
2022-12-20T16:42:22.962Z,101335.09
2022-12-20T16:45:29.012Z,101336.72
2022-12-20T16:48:55.324Z,101327.56
2022-12-20T17:18:54.516Z,101316.94
2022-12-20T17:25:22.827Z,101310.34
2022-12-20T18:22:44.600Z,101265.97
2022-12-20T18:25:47.655Z,101250.00
2022-12-20T18:28:54.888Z,101239.06
2022-12-20T18:31:58.443Z,101225.81
2022-12-20T18:35:01.446Z,101223.00
2022-12-20T18:38:05.079Z,101227.03
2022-12-20T18:41:14.437Z,101227.66
2022-12-20T18:44:17.639Z,101237.97
2022-12-20T18:47:20.513Z,101223.25
2022-12-20T18:50:26.754Z,101225.06
2022-12-20T18:53:35.338Z,101224.25
2022-12-20T18:56:38.720Z,101224.34
2022-12-20T18:59:41.686Z,101228.78
2022-12-20T19:02:45.100Z,101227.69
2022-12-20T19:05:55.099Z,101222.44
2022-12-20T19:09:07.310Z,101224.97
2022-12-20T19:12:10.302Z,101228.06
2022-12-20T19:15:14.580Z,101223.53
2022-12-20T19:18:17.601Z,101219.38
2022-12-20T19:21:24.439Z,101232.00
2022-12-20T19:24:53.616Z,101235.16
2022-12-20T19:28:28.382Z,101236.81
2022-12-20T19:31:44.553Z,101234.00
2022-12-20T19:34:59.236Z,101235.28
2022-12-20T19:38:02.934Z,101241.31
2022-12-20T19:41:05.969Z,101240.41
2022-12-20T19:44:09.531Z,101233.66
2022-12-20T19:47:13.239Z,101247.19
2022-12-20T19:50:17.207Z,101242.31
2022-12-20T19:53:20.001Z,101236.06
2022-12-20T19:56:28.947Z,101237.28
2022-12-20T19:59:31.797Z,101233.66
2022-12-20T20:02:35.136Z,101226.97
2022-12-20T20:05:38.618Z,101226.97
2022-12-20T20:08:41.843Z,101219.84
2022-12-20T20:11:45.061Z,101214.75
2022-12-20T20:14:48.192Z,101205.38
2022-12-20T20:17:51.670Z,101211.25
2022-12-20T20:20:57.013Z,101212.25
2022-12-20T20:24:00.132Z,101215.59
2022-12-20T20:27:02.939Z,101223.53
2022-12-20T20:30:07.194Z,101222.16
2022-12-20T20:33:12.243Z,101210.44
2022-12-20T20:51:43.561Z,101191.56
2022-12-20T20:54:46.866Z,101191.91
2022-12-20T20:57:50.531Z,101194.97
2022-12-20T21:01:02.406Z,101195.16
2022-12-20T21:04:05.619Z,101186.50
2022-12-20T21:22:01.605Z,101176.84
2022-12-20T21:25:05.933Z,101175.59
2022-12-20T21:28:19.335Z,101168.97
2022-12-20T21:31:24.421Z,101165.44
2022-12-20T22:04:27.536Z,101111.78
2022-12-20T22:07:30.576Z,101112.59
2022-12-20T22:10:33.500Z,101098.88
2022-12-20T22:13:41.649Z,101097.25
2022-12-20T22:16:45.602Z,101094.63
2022-12-20T22:19:50.500Z,101094.87
2022-12-20T22:22:53.976Z,101101.50
2022-12-20T22:25:57.175Z,101085.59
2022-12-20T22:29:03.225Z,101080.09
2022-12-20T22:32:06.446Z,101074.31
2022-12-20T22:35:09.260Z,101071.50
2022-12-20T22:38:12.284Z,101071.56
2022-12-20T22:41:17.993Z,101061.06
2022-12-20T22:44:24.103Z,101048.38
2022-12-20T22:47:26.765Z,101043.50
2022-12-20T22:50:29.704Z,101050.91
2022-12-20T22:53:33.907Z,101052.62
2022-12-20T22:56:36.863Z,101043.72
2022-12-20T22:59:39.628Z,101039.63
2022-12-20T23:02:42.849Z,101044.38
2022-12-20T23:05:56.629Z,101040.94
2022-12-20T23:08:59.717Z,101044.19
2022-12-20T23:12:21.230Z,101034.53
2022-12-20T23:15:42.281Z,101044.38
2022-12-20T23:18:45.047Z,101028.41
2022-12-20T23:22:20.187Z,101019.91
2022-12-20T23:25:22.880Z,101022.09
2022-12-20T23:28:25.935Z,101024.97
2022-12-20T23:31:28.954Z,101009.13
2022-12-20T23:34:31.941Z,101012.81
2022-12-20T23:37:34.639Z,101013.56
2022-12-20T23:40:41.662Z,101001.81
2022-12-20T23:43:48.528Z,101000.91
2022-12-20T23:46:53.236Z,100999.78
2022-12-20T23:49:56.023Z,100996.41
2022-12-20T23:56:46.749Z,100983.88
2022-12-20T23:59:51.001Z,100984.12
